Time;durP1;ratioP1;P1;durP2;ratioP2;P2;SDS_P1;SDS_P2;PMS_P1;PMS_P2;Temp;Humidity;BMP_temperature;BMP_pressure;BME280_temperature;BME280_humidity;BME280_pressure;Samples;Min_cycle;Max_cycle;Signal;HPM_P1;HPM_P2
2022/03/22 00:02:05;;;;;;;13.77;10.23;;;5.20;93.90;;;;;;5061741;28;20323;-47
2022/03/22 00:04:33;;;;;;;11.33;9.20;;;5.20;93.90;;;;;;5060549;28;20872;-44
2022/03/22 00:07:00;;;;;;;14.03;10.43;;;5.10;94.00;;;;;;5062364;28;20199;-47
2022/03/22 00:09:27;;;;;;;13.67;9.47;;;5.10;94.80;;;;;;5059695;28;20265;-49
2022/03/22 00:11:54;;;;;;;15.67;10.13;;;5.10;95.00;;;;;;5062815;28;20198;-48
2022/03/22 00:14:21;;;;;;;11.80;10.00;;;5.00;95.10;;;;;;5058718;28;20293;-47
2022/03/22 00:16:48;;;;;;;14.70;10.03;;;5.00;96.10;;;;;;5045167;28;20215;-44
2022/03/22 00:19:15;;;;;;;11.10;9.30;;;5.00;96.70;;;;;;5060553;28;20210;-48
2022/03/22 00:21:43;;;;;;;13.03;9.80;;;5.00;97.50;;;;;;5062333;28;20282;-44
2022/03/22 00:24:10;;;;;;;14.43;8.80;;;4.90;97.80;;;;;;5060261;28;20216;-47
2022/03/22 00:26:37;;;;;;;15.47;10.33;;;4.80;97.30;;;;;;5062080;28;20199;-44
2022/03/22 00:29:04;;;;;;;15.93;10.13;;;4.80;97.30;;;;;;5059072;28;20207;-46
2022/03/22 00:31:31;;;;;;;12.37;9.20;;;4.90;97.60;;;;;;5050218;28;20217;-45
2022/03/22 00:33:58;;;;;;;12.77;8.57;;;4.80;97.10;;;;;;5058432;28;20253;-43
2022/03/22 00:36:26;;;;;;;14.40;10.17;;;4.80;96.50;;;;;;5062133;28;20205;-46
2022/03/22 00:38:54;;;;;;;13.10;9.53;;;4.80;96.30;;;;;;5059639;28;20190;-44
2022/03/22 00:41:21;;;;;;;12.23;9.13;;;4.80;96.70;;;;;;5061722;28;20203;-45
2022/03/22 00:43:48;;;;;;;13.70;9.57;;;4.80;97.00;;;;;;5060429;28;20241;-45
2022/03/22 00:46:15;;;;;;;11.83;8.77;;;4.80;97.70;;;;;;5044322;28;20202;-48
2022/03/22 00:48:42;;;;;;;11.47;8.77;;;4.70;98.00;;;;;;5061069;28;20293;-47
2022/03/22 00:51:10;;;;;;;16.37;9.67;;;4.70;97.70;;;;;;5060519;28;20205;-47
2022/03/22 00:53:37;;;;;;;12.13;8.43;;;4.70;98.10;;;;;;5066973;28;20324;-50
2022/03/22 00:56:07;;;;;;;12.87;9.03;;;4.70;98.50;;;;;;5061932;28;20318;-47
2022/03/22 00:58:34;;;;;;;12.27;8.90;;;4.70;97.90;;;;;;5066712;28;20225;-47
2022/03/22 01:01:01;;;;;;;12.70;9.17;;;4.70;97.80;;;;;;5048521;28;20904;-50
2022/03/22 01:03:29;;;;;;;12.10;8.50;;;4.80;97.50;;;;;;5065280;28;20277;-46
2022/03/22 01:05:55;;;;;;;11.07;8.23;;;4.70;96.80;;;;;;5061692;28;20198;-49
2022/03/22 01:08:23;;;;;;;10.63;8.47;;;4.80;96.40;;;;;;5066629;28;20244;-48
2022/03/22 01:10:52;;;;;;;10.17;7.97;;;4.80;95.70;;;;;;5063455;28;20190;-45
2022/03/22 01:13:22;;;;;;;10.10;8.17;;;4.90;95.00;;;;;;5065533;28;20281;-45
2022/03/22 01:15:49;;;;;;;11.83;8.67;;;4.90;94.10;;;;;;5055777;28;20278;-48
2022/03/22 01:18:16;;;;;;;11.53;7.93;;;5.00;94.00;;;;;;5053109;28;20205;-48
2022/03/22 01:20:46;;;;;;;10.73;8.17;;;5.00;93.70;;;;;;5064969;28;20293;-47
2022/03/22 01:23:12;;;;;;;12.53;8.63;;;5.00;93.90;;;;;;5063965;28;20205;-46
2022/03/22 01:25:41;;;;;;;9.87;8.13;;;5.00;93.30;;;;;;5065455;28;20250;-45
2022/03/22 01:28:09;;;;;;;17.43;8.20;;;5.00;92.80;;;;;;5062300;28;20896;-50
2022/03/22 01:30:38;;;;;;;10.07;8.50;;;5.10;92.40;;;;;;5065571;28;20194;-47
2022/03/22 01:33:06;;;;;;;12.13;8.27;;;5.10;92.00;;;;;;5041817;28;20202;-50
2022/03/22 01:35:33;;;;;;;12.10;9.23;;;5.10;91.70;;;;;;5059939;28;20250;-50
2022/03/22 01:38:01;;;;;;;11.60;8.70;;;5.10;91.50;;;;;;5057414;28;20273;-47
2022/03/22 01:40:30;;;;;;;10.23;7.83;;;5.20;91.20;;;;;;5061783;28;20218;-45
2022/03/22 01:42:57;;;;;;;13.20;8.20;;;5.20;90.90;;;;;;5061661;28;20728;-47
2022/03/22 01:45:24;;;;;;;10.50;8.57;;;5.20;90.70;;;;;;5065417;28;20223;-47
2022/03/22 01:47:54;;;;;;;10.90;8.20;;;5.20;90.50;;;;;;5048096;28;20210;-46
2022/03/22 01:50:22;;;;;;;13.10;9.17;;;5.20;90.40;;;;;;5058917;28;20247;-47
2022/03/22 01:52:49;;;;;;;10.87;8.70;;;5.20;90.20;;;;;;5063720;28;20543;-49
2022/03/22 01:55:18;;;;;;;13.20;9.00;;;5.20;90.20;;;;;;5063729;28;20293;-48
2022/03/22 01:57:46;;;;;;;11.83;8.00;;;5.20;90.30;;;;;;5063056;28;20273;-48
2022/03/22 02:00:15;;;;;;;12.27;8.27;;;5.20;90.30;;;;;;5062660;28;20218;-47
2022/03/22 02:08:16;;;;;;;10.70;7.90;;;5.20;90.40;;;;;;5063093;28;20801;-50
2022/03/22 02:10:43;;;;;;;14.23;8.67;;;5.10;90.90;;;;;;5064289;28;20191;-46
2022/03/22 02:13:10;;;;;;;11.70;7.87;;;5.10;91.40;;;;;;5062074;28;20294;-45
2022/03/22 02:15:37;;;;;;;10.60;8.40;;;5.00;91.10;;;;;;5064738;28;20226;-44
2022/03/22 02:18:05;;;;;;;11.30;8.47;;;5.00;90.70;;;;;;5047669;28;20207;-45
2022/03/22 02:20:33;;;;;;;10.27;8.30;;;5.10;90.40;;;;;;5064933;28;20219;-47
2022/03/22 02:23:05;;;;;;;9.47;7.73;;;5.10;90.20;;;;;;5060552;28;20195;-46
2022/03/22 02:25:35;;;;;;;9.67;7.83;;;5.10;90.20;;;;;;5064637;28;20225;-45
2022/03/22 02:28:03;;;;;;;9.13;8.17;;;5.10;90.40;;;;;;5059823;28;20221;-45
2022/03/22 02:30:31;;;;;;;13.37;9.10;;;5.00;90.30;;;;;;5061351;28;20240;-46
2022/03/22 02:33:01;;;;;;;10.60;8.67;;;5.00;90.20;;;;;;5056262;28;20244;-47
2022/03/22 02:35:29;;;;;;;11.93;7.80;;;5.00;90.20;;;;;;5049578;28;20264;-47
2022/03/22 02:37:57;;;;;;;12.43;8.50;;;5.00;90.10;;;;;;5060039;28;20210;-44
2022/03/22 02:40:26;;;;;;;12.97;8.37;;;5.00;90.10;;;;;;5064083;28;20219;-46
2022/03/22 02:42:55;;;;;;;10.07;8.17;;;5.00;90.00;;;;;;5060307;28;20190;-44
2022/03/22 02:45:23;;;;;;;9.83;7.93;;;5.00;89.90;;;;;;5064312;28;20258;-48
2022/03/22 02:47:51;;;;;;;10.37;7.63;;;5.00;90.40;;;;;;5059912;28;20209;-45
2022/03/22 02:50:18;;;;;;;10.40;8.50;;;4.90;90.50;;;;;;5049919;28;20221;-44
2022/03/22 02:52:45;;;;;;;12.87;8.63;;;4.90;90.70;;;;;;5060335;28;20195;-46
2022/03/22 02:55:13;;;;;;;11.20;8.67;;;4.90;92.30;;;;;;5063917;28;20249;-49
2022/03/22 02:57:40;;;;;;;12.13;8.30;;;4.80;93.40;;;;;;5060277;28;20191;-46
2022/03/22 03:00:11;;;;;;;10.63;8.20;;;4.70;94.10;;;;;;5063661;28;20218;-47
2022/03/22 03:02:43;;;;;;;11.07;8.70;;;4.70;94.70;;;;;;5061541;28;20531;-44
2022/03/22 03:05:10;;;;;;;10.13;8.53;;;4.70;94.80;;;;;;5049725;28;20225;-46
2022/03/22 03:07:37;;;;;;;12.07;8.57;;;4.70;94.30;;;;;;5060602;28;20218;-46
2022/03/22 03:10:06;;;;;;;13.43;8.50;;;4.60;93.90;;;;;;5062941;28;20187;-46
2022/03/22 03:12:33;;;;;;;12.07;8.80;;;4.70;95.50;;;;;;5061831;28;20187;-43
2022/03/22 03:15:00;;;;;;;10.90;8.43;;;4.60;95.80;;;;;;5061706;28;20210;-44
2022/03/22 03:17:29;;;;;;;10.97;8.40;;;4.60;95.40;;;;;;5062836;28;20202;-48
2022/03/22 03:19:57;;;;;;;14.77;9.07;;;4.60;95.70;;;;;;5061363;28;20222;-46
2022/03/22 03:22:24;;;;;;;10.07;7.83;;;4.50;96.00;;;;;;5049806;28;20209;-43
2022/03/22 03:24:51;;;;;;;11.93;8.87;;;4.40;96.10;;;;;;5059709;28;20210;-46
2022/03/22 03:27:17;;;;;;;12.70;8.43;;;4.40;96.50;;;;;;5062877;28;20670;-44
2022/03/22 03:29:46;;;;;;;12.90;8.53;;;4.40;96.50;;;;;;5060019;28;20205;-48
2022/03/22 03:32:13;;;;;;;10.97;8.87;;;4.40;96.20;;;;;;5063420;28;20201;-44
2022/03/22 03:34:41;;;;;;;9.93;7.93;;;4.40;96.50;;;;;;5059892;28;20222;-49
2022/03/22 03:37:09;;;;;;;12.63;8.67;;;4.30;96.20;;;;;;5050912;28;20216;-47
2022/03/22 03:39:38;;;;;;;10.87;8.80;;;4.30;95.90;;;;;;5060962;28;20195;-47
2022/03/22 03:42:07;;;;;;;10.43;8.73;;;4.30;96.40;;;;;;5062431;28;20228;-47
2022/03/22 03:47:22;;;;;;;9.27;7.67;;;4.20;97.90;;;;;;5062919;28;20658;-47
2022/03/22 03:49:53;;;;;;;13.63;8.80;;;4.20;98.10;;;;;;5057150;28;20267;-50
2022/03/22 03:52:21;;;;;;;11.67;8.80;;;4.10;98.70;;;;;;5057551;28;20203;-51
2022/03/22 03:54:49;;;;;;;10.73;8.60;;;4.10;99.10;;;;;;5045862;28;20984;-45
2022/03/22 03:57:16;;;;;;;9.93;7.50;;;4.00;99.50;;;;;;5061933;28;20206;-50
2022/03/22 03:59:44;;;;;;;13.57;9.90;;;4.00;99.50;;;;;;5059585;28;20202;-46
2022/03/22 04:02:11;;;;;;;11.80;8.63;;;4.00;99.50;;;;;;5063198;28;20198;-49
2022/03/22 04:04:39;;;;;;;13.60;8.90;;;4.00;99.30;;;;;;5060625;28;20222;-46
2022/03/22 04:07:11;;;;;;;14.50;9.33;;;4.00;99.40;;;;;;5061694;28;20717;-45
2022/03/22 04:09:39;;;;;;;12.53;9.23;;;4.00;99.90;;;;;;5046997;28;20199;-47
2022/03/22 04:12:07;;;;;;;14.13;8.63;;;4.00;99.90;;;;;;5061304;28;20193;-43
2022/03/22 04:14:34;;;;;;;11.03;8.33;;;3.90;99.80;;;;;;5061137;28;20207;-48
2022/03/22 04:17:01;;;;;;;11.67;8.47;;;3.90;99.70;;;;;;5060653;28;21027;-44
2022/03/22 04:19:29;;;;;;;13.40;8.90;;;3.90;99.80;;;;;;5062451;28;20726;-48
2022/03/22 04:21:56;;;;;;;9.67;8.20;;;3.90;99.30;;;;;;5060022;28;20215;-46
2022/03/22 04:24:24;;;;;;;10.37;8.90;;;3.90;99.90;;;;;;5048892;28;20226;-48
2022/03/22 04:26:50;;;;;;;17.50;9.60;;;3.90;99.90;;;;;;5056904;28;20201;-44
2022/03/22 04:34:48;;;;;;;11.83;8.67;;;3.90;99.90;;;;;;5058478;28;20241;-47
2022/03/22 04:37:16;;;;;;;12.00;8.70;;;3.80;99.90;;;;;;5062151;28;20206;-45
2022/03/22 04:39:46;;;;;;;12.73;8.63;;;3.80;99.90;;;;;;5047083;28;20604;-45
2022/03/22 04:42:14;;;;;;;14.67;8.50;;;3.70;99.90;;;;;;5057344;28;20218;-46
2022/03/22 04:44:41;;;;;;;11.43;8.83;;;3.70;99.90;;;;;;5056332;28;20572;-45
2022/03/22 04:47:09;;;;;;;15.57;9.10;;;3.70;99.90;;;;;;5044700;28;20687;-46
2022/03/22 04:49:36;;;;;;;14.47;9.13;;;3.70;99.90;;;;;;5052646;28;20560;-46
2022/03/22 04:57:36;;;;;;;11.97;9.27;;;3.80;99.20;;;;;;5058574;28;20740;-48
2022/03/22 05:00:04;;;;;;;11.77;9.17;;;3.90;98.90;;;;;;5060656;28;20195;-48
2022/03/22 05:02:32;;;;;;;11.53;8.53;;;3.80;99.60;;;;;;5054090;28;20211;-44
2022/03/22 05:05:00;;;;;;;11.73;8.80;;;3.80;99.90;;;;;;5059740;28;20219;-45
2022/03/22 05:07:27;;;;;;;11.37;8.93;;;3.70;99.90;;;;;;5056388;28;20645;-48
2022/03/22 05:09:56;;;;;;;12.70;9.17;;;3.60;99.90;;;;;;5043884;28;21821;-46
2022/03/22 05:12:22;;;;;;;13.30;9.30;;;3.70;99.90;;;;;;5058974;28;20227;-48
2022/03/22 05:14:50;;;;;;;10.83;8.67;;;3.60;99.90;;;;;;5058252;28;20301;-46
2022/03/22 05:17:21;;;;;;;11.87;9.00;;;3.60;99.90;;;;;;5061779;28;20609;-48
2022/03/22 05:19:49;;;;;;;12.27;9.37;;;3.60;99.90;;;;;;5058505;28;20190;-44
2022/03/22 05:22:16;;;;;;;13.57;9.47;;;3.60;99.90;;;;;;5062412;28;20232;-45
2022/03/22 05:24:44;;;;;;;12.47;8.90;;;3.60;99.90;;;;;;5054233;28;20218;-46
2022/03/22 05:27:12;;;;;;;12.10;9.10;;;3.60;99.90;;;;;;5046395;28;20221;-45
2022/03/22 05:29:39;;;;;;;11.53;8.47;;;3.60;99.90;;;;;;5050719;28;20214;-50
2022/03/22 05:32:06;;;;;;;11.13;8.83;;;3.60;99.90;;;;;;5058344;28;20897;-44
2022/03/22 05:34:33;;;;;;;10.87;8.67;;;3.50;99.90;;;;;;5055188;28;20629;-45
2022/03/22 05:37:01;;;;;;;11.47;8.90;;;3.50;99.90;;;;;;5058734;28;20197;-44
2022/03/22 05:39:27;;;;;;;13.70;9.50;;;3.50;99.90;;;;;;5061740;28;20198;-49
2022/03/22 05:41:54;;;;;;;10.73;8.60;;;3.50;99.90;;;;;;5040470;28;20218;-51
2022/03/22 05:44:22;;;;;;;13.53;9.30;;;3.50;99.90;;;;;;5064743;28;20211;-47
2022/03/22 05:46:49;;;;;;;11.73;8.73;;;3.50;99.90;;;;;;5055444;28;20201;-49
2022/03/22 05:49:16;;;;;;;9.73;8.73;;;3.50;99.90;;;;;;5064648;28;20202;-45
2022/03/22 05:51:43;;;;;;;13.63;10.07;;;3.50;99.90;;;;;;5059846;28;20268;-57
2022/03/22 05:54:10;;;;;;;13.60;9.40;;;3.50;99.90;;;;;;5058778;28;20707;-56
2022/03/22 05:56:37;;;;;;;11.30;9.40;;;3.50;99.90;;;;;;5053866;28;20216;-57
2022/03/22 05:59:04;;;;;;;16.73;9.57;;;3.50;99.90;;;;;;5050760;28;20206;-48
2022/03/22 06:01:32;;;;;;;14.20;9.63;;;3.60;99.90;;;;;;5058503;28;20211;-54
2022/03/22 06:03:59;;;;;;;12.97;8.63;;;3.60;99.90;;;;;;5052574;28;21034;-45
2022/03/22 06:06:26;;;;;;;14.53;9.17;;;3.70;99.90;;;;;;5049563;28;20218;-54
2022/03/22 06:08:52;;;;;;;16.17;9.67;;;3.80;99.90;;;;;;5054128;28;20204;-45
2022/03/22 06:11:19;;;;;;;12.70;8.93;;;3.80;99.90;;;;;;5050975;28;20199;-50
2022/03/22 06:13:46;;;;;;;12.70;9.20;;;3.90;99.90;;;;;;5044863;28;20217;-45
2022/03/22 06:16:13;;;;;;;12.63;9.47;;;3.90;99.90;;;;;;5056307;28;20209;-49
2022/03/22 06:18:41;;;;;;;12.87;9.20;;;4.00;99.90;;;;;;5061497;28;20199;-50
2022/03/22 06:21:08;;;;;;;15.33;10.13;;;4.10;99.80;;;;;;5061664;28;20698;-47
2022/03/22 06:23:35;;;;;;;13.80;8.63;;;4.10;99.60;;;;;;5056697;28;20191;-45
2022/03/22 06:26:02;;;;;;;12.23;9.13;;;4.10;99.30;;;;;;5061273;28;20210;-51
2022/03/22 06:28:29;;;;;;;11.10;9.20;;;4.20;99.10;;;;;;5047263;28;20210;-47
2022/03/22 06:30:57;;;;;;;12.27;9.20;;;4.30;98.80;;;;;;5065431;28;20221;-44
2022/03/22 06:33:24;;;;;;;12.60;9.10;;;4.30;98.60;;;;;;5054438;28;20851;-45
2022/03/22 06:35:53;;;;;;;15.37;9.27;;;4.40;98.40;;;;;;5062245;28;20218;-47
2022/03/22 06:38:20;;;;;;;12.10;9.30;;;4.40;98.40;;;;;;5052394;28;20190;-47
2022/03/22 06:40:49;;;;;;;15.43;9.27;;;4.50;98.20;;;;;;5064408;28;20199;-48
2022/03/22 06:43:17;;;;;;;14.90;9.33;;;4.50;98.00;;;;;;5053419;28;20735;-50
2022/03/22 06:45:46;;;;;;;15.60;9.77;;;4.60;98.00;;;;;;5054790;28;20230;-45
2022/03/22 06:48:15;;;;;;;11.67;8.97;;;4.70;97.70;;;;;;5056311;28;20214;-50
2022/03/22 06:50:43;;;;;;;14.07;10.10;;;4.70;97.80;;;;;;5053343;28;20671;-49
2022/03/22 06:53:12;;;;;;;12.80;9.60;;;4.80;97.40;;;;;;5063190;28;20709;-46
2022/03/22 06:55:39;;;;;;;10.93;9.60;;;5.00;97.20;;;;;;5055172;28;20226;-46
2022/03/22 06:58:07;;;;;;;14.43;9.70;;;5.10;97.10;;;;;;5055952;28;20750;-47
2022/03/22 07:00:34;;;;;;;14.10;8.90;;;5.20;96.70;;;;;;5048751;28;20211;-50
2022/03/22 07:03:02;;;;;;;16.37;10.07;;;5.30;96.40;;;;;;5054850;28;20300;-48
2022/03/22 07:05:29;;;;;;;12.17;10.30;;;5.40;96.20;;;;;;5049805;28;20570;-47
2022/03/22 07:07:57;;;;;;;12.17;10.17;;;5.50;95.90;;;;;;5052556;28;20244;-48
2022/03/22 07:10:25;;;;;;;13.53;10.23;;;5.60;95.40;;;;;;5057133;28;20273;-50
2022/03/22 07:12:54;;;;;;;17.50;9.70;;;5.70;95.00;;;;;;5052505;28;20282;-45
2022/03/22 07:15:23;;;;;;;15.03;10.03;;;5.80;94.60;;;;;;5043260;28;20305;-48
2022/03/22 07:17:52;;;;;;;15.07;10.40;;;5.90;94.60;;;;;;5047520;28;21057;-48
2022/03/22 07:20:20;;;;;;;14.67;10.37;;;6.00;94.10;;;;;;5052820;28;20210;-47
2022/03/22 07:22:47;;;;;;;15.37;10.87;;;6.10;93.80;;;;;;5051719;28;20263;-50
2022/03/22 07:25:14;;;;;;;16.50;11.13;;;6.20;93.60;;;;;;5062317;28;20218;-45
2022/03/22 07:27:42;;;;;;;14.80;10.53;;;6.30;93.40;;;;;;5048171;28;20205;-46
2022/03/22 07:30:11;;;;;;;15.63;10.60;;;6.30;93.30;;;;;;5060679;28;21098;-46
2022/03/22 07:32:38;;;;;;;15.40;10.90;;;6.40;93.10;;;;;;5034632;28;20308;-52
2022/03/22 07:35:06;;;;;;;17.83;11.60;;;6.50;93.00;;;;;;5061476;28;20268;-47
2022/03/22 07:37:55;;;;;;;15.37;10.63;;;6.60;93.10;;;;;;5055961;28;20210;-46
2022/03/22 07:40:22;;;;;;;15.07;10.70;;;6.70;93.10;;;;;;5057447;28;20206;-50
2022/03/22 07:42:50;;;;;;;17.47;10.93;;;6.80;93.00;;;;;;5045906;28;20305;-49
2022/03/22 07:45:19;;;;;;;13.43;11.33;;;6.80;92.20;;;;;;5059123;28;20272;-51
2022/03/22 07:47:46;;;;;;;16.47;11.20;;;7.00;92.00;;;;;;5035894;28;20206;-48
2022/03/22 07:53:06;;;;;;;17.90;11.00;;;7.10;91.30;;;;;;5054253;28;20842;-46
2022/03/22 07:55:34;;;;;;;14.90;11.37;;;7.20;91.40;;;;;;5050467;28;20242;-47
2022/03/22 07:58:05;;;;;;;13.87;10.83;;;7.30;91.10;;;;;;5053619;28;20199;-47
2022/03/22 08:00:35;;;;;;;15.97;11.10;;;7.40;90.70;;;;;;5053711;28;20748;-48
2022/03/22 08:03:03;;;;;;;18.47;11.17;;;7.60;90.40;;;;;;5047485;28;20743;-45
2022/03/22 08:05:32;;;;;;;15.70;10.53;;;7.70;99.50;;;;;;5056309;28;20210;-48
2022/03/22 08:07:59;;;;;;;14.53;10.93;;;7.80;94.10;;;;;;5060740;28;20207;-50
2022/03/22 08:10:26;;;;;;;18.10;10.60;;;7.90;89.80;;;;;;5039592;28;20191;-46
2022/03/22 08:12:54;;;;;;;15.70;10.57;;;8.00;89.10;;;;;;5054235;28;20670;-47
2022/03/22 08:15:22;;;;;;;17.93;11.33;;;8.10;88.70;;;;;;5048657;28;20232;-47
2022/03/22 08:17:48;;;;;;;17.27;10.77;;;8.20;87.70;;;;;;5043446;28;20206;-44
2022/03/22 08:20:17;;;;;;;15.83;10.97;;;8.30;86.20;;;;;;5041197;28;20319;-50
2022/03/22 08:22:51;;;;;;;16.23;10.70;;;8.50;86.00;;;;;;5042246;28;20449;-46
2022/03/22 08:25:22;;;;;;;16.20;11.20;;;8.60;85.30;;;;;;5051673;28;20230;-45
2022/03/22 08:27:50;;;;;;;16.10;10.93;;;8.70;84.20;;;;;;5048123;28;20202;-44
2022/03/22 08:30:20;;;;;;;15.83;11.33;;;8.80;83.10;;;;;;5044976;28;20203;-47
2022/03/22 08:32:49;;;;;;;13.60;10.13;;;8.90;82.40;;;;;;5047702;28;20352;-47
2022/03/22 08:35:16;;;;;;;17.83;12.33;;;9.00;81.40;;;;;;5038463;28;20234;-50
2022/03/22 08:37:43;;;;;;;16.03;11.10;;;9.10;81.10;;;;;;5043864;28;20203;-44
2022/03/22 08:40:13;;;;;;;17.37;12.67;;;9.30;79.80;;;;;;5043193;28;20211;-47
2022/03/22 08:42:41;;;;;;;15.83;11.20;;;9.40;79.20;;;;;;5040117;28;20225;-44
2022/03/22 08:45:09;;;;;;;17.13;11.97;;;9.50;79.10;;;;;;5047376;28;20215;-47
2022/03/22 08:47:37;;;;;;;14.23;11.20;;;9.60;78.50;;;;;;5044612;28;20218;-45
2022/03/22 08:50:06;;;;;;;14.87;11.13;;;9.80;78.20;;;;;;5035530;28;20284;-46
2022/03/22 08:52:33;;;;;;;16.43;11.77;;;10.10;90.00;;;;;;5048964;28;20909;-46
2022/03/22 08:55:00;;;;;;;15.23;11.27;;;10.00;95.40;;;;;;5049819;28;20224;-46
2022/03/22 08:57:27;;;;;;;21.00;12.30;;;10.20;77.30;;;;;;5054358;28;20277;-46
2022/03/22 08:59:53;;;;;;;17.53;11.53;;;10.30;76.30;;;;;;5054009;28;20210;-45
2022/03/22 09:02:20;;;;;;;15.83;11.70;;;10.40;75.60;;;;;;5047888;28;20714;-49
2022/03/22 09:07:32;;;;;;;16.00;10.53;;;10.60;74.90;;;;;;5031005;28;20336;-45
2022/03/22 09:09:59;;;;;;;18.73;11.17;;;10.70;74.80;;;;;;5052323;28;20213;-49
2022/03/22 09:12:26;;;;;;;13.53;11.20;;;10.80;73.60;;;;;;5046490;28;20206;-46
2022/03/22 09:14:53;;;;;;;14.97;11.60;;;10.90;73.70;;;;;;5056284;28;20606;-46
2022/03/22 09:17:20;;;;;;;17.43;11.30;;;11.10;72.80;;;;;;5059576;28;20198;-45
2022/03/22 09:19:47;;;;;;;14.93;11.70;;;11.20;71.80;;;;;;5057217;28;20206;-48
2022/03/22 09:22:15;;;;;;;16.80;11.47;;;11.30;71.70;;;;;;5040966;28;20264;-47
2022/03/22 09:24:43;;;;;;;16.97;11.97;;;11.40;69.50;;;;;;5054041;28;20215;-46
2022/03/22 09:27:10;;;;;;;15.10;10.73;;;11.40;70.90;;;;;;5051099;28;20268;-50
2022/03/22 09:29:36;;;;;;;14.93;10.83;;;11.50;69.80;;;;;;5052901;28;20194;-46
2022/03/22 09:32:04;;;;;;;15.23;11.20;;;11.60;70.00;;;;;;5052132;28;20203;-49
2022/03/22 09:34:32;;;;;;;16.43;11.57;;;11.70;69.20;;;;;;5051609;28;20289;-47
2022/03/22 09:36:59;;;;;;;15.27;12.17;;;11.80;67.80;;;;;;5053246;28;20248;-45
2022/03/22 09:39:26;;;;;;;14.83;11.67;;;11.80;68.10;;;;;;5043541;28;20199;-45
2022/03/22 09:41:56;;;;;;;17.63;12.03;;;11.90;67.60;;;;;;5059246;28;20808;-45
2022/03/22 09:44:23;;;;;;;15.53;11.03;;;12.00;66.10;;;;;;5053768;28;20226;-45
2022/03/22 09:46:51;;;;;;;14.67;11.67;;;12.10;66.00;;;;;;5055356;28;20290;-45
2022/03/22 09:49:18;;;;;;;15.87;11.63;;;12.20;64.50;;;;;;5053267;28;20278;-45
2022/03/22 09:51:48;;;;;;;20.43;12.07;;;12.30;64.90;;;;;;5053005;28;20207;-46
2022/03/22 09:54:17;;;;;;;16.37;11.97;;;12.30;64.70;;;;;;5032000;28;20822;-49
2022/03/22 09:56:46;;;;;;;18.07;12.20;;;12.40;64.50;;;;;;5063554;28;20656;-47
2022/03/22 09:59:15;;;;;;;14.97;12.07;;;12.40;63.70;;;;;;5051911;28;20198;-47
2022/03/22 10:01:42;;;;;;;13.13;11.27;;;12.50;62.90;;;;;;5049802;28;20218;-45
2022/03/22 10:04:12;;;;;;;15.80;12.47;;;12.70;62.10;;;;;;5053289;28;20272;-47
2022/03/22 10:06:45;;;;;;;13.80;11.23;;;12.80;61.70;;;;;;5035840;28;20210;-52
2022/03/22 10:09:11;;;;;;;17.33;11.67;;;12.90;61.20;;;;;;5039404;28;20281;-48
2022/03/22 10:11:40;;;;;;;15.07;11.63;;;13.00;60.60;;;;;;5043223;28;20195;-48
2022/03/22 10:14:09;;;;;;;12.70;11.37;;;13.10;61.10;;;;;;5058106;28;20302;-48
2022/03/22 10:16:50;;;;;;;14.83;11.23;;;13.20;60.20;;;;;;5044715;28;20240;-46
2022/03/22 10:19:21;;;;;;;17.53;11.67;;;13.30;60.40;;;;;;5060923;28;20282;-46
2022/03/22 10:21:47;;;;;;;16.87;11.67;;;13.40;59.40;;;;;;5052806;28;20253;-49
2022/03/22 10:24:15;;;;;;;13.47;11.13;;;13.50;59.00;;;;;;5046922;28;20229;-48
2022/03/22 10:26:44;;;;;;;16.07;11.33;;;13.60;58.80;;;;;;5051351;28;20191;-46
2022/03/22 10:29:13;;;;;;;15.17;11.87;;;13.80;58.90;;;;;;5057238;28;20574;-45
2022/03/22 10:31:40;;;;;;;14.43;10.80;;;13.90;57.80;;;;;;5050800;28;20206;-49
2022/03/22 10:34:10;;;;;;;13.83;11.47;;;14.10;57.90;;;;;;5056280;28;20317;-48
2022/03/22 10:36:37;;;;;;;14.73;11.60;;;14.20;57.70;;;;;;5056697;28;20199;-49
2022/03/22 10:39:07;;;;;;;14.43;11.73;;;14.30;56.70;;;;;;5059493;28;20209;-46
2022/03/22 10:41:39;;;;;;;12.43;11.10;;;14.40;57.10;;;;;;5038557;28;20209;-50
2022/03/22 10:44:08;;;;;;;16.67;11.47;;;14.40;57.20;;;;;;5055698;28;20237;-48
2022/03/22 10:46:37;;;;;;;15.47;12.00;;;14.50;57.30;;;;;;5047318;28;20198;-49
2022/03/22 10:49:06;;;;;;;13.10;11.00;;;14.60;56.60;;;;;;5054721;28;20666;-47
2022/03/22 10:51:35;;;;;;;16.43;11.87;;;14.70;56.80;;;;;;5057902;28;20601;-51
2022/03/22 10:54:02;;;;;;;17.30;11.70;;;14.80;56.60;;;;;;5062509;28;20211;-46
2022/03/22 10:56:30;;;;;;;15.43;12.03;;;14.90;56.00;;;;;;5043247;28;20211;-46
2022/03/22 10:58:59;;;;;;;14.33;11.83;;;15.00;55.90;;;;;;5057975;28;20256;-46
2022/03/22 11:01:26;;;;;;;16.27;11.90;;;15.00;55.20;;;;;;5061503;28;20209;-47
2022/03/22 11:03:57;;;;;;;17.53;11.70;;;15.00;54.90;;;;;;5055277;28;20222;-46
2022/03/22 11:06:30;;;;;;;15.40;11.67;;;15.10;54.20;;;;;;5056615;28;20194;-48
2022/03/22 11:09:00;;;;;;;17.57;12.67;;;15.10;55.10;;;;;;5061491;28;20252;-52
2022/03/22 11:11:28;;;;;;;18.83;12.90;;;15.20;55.40;;;;;;5049452;28;20214;-51
2022/03/22 11:13:55;;;;;;;18.10;12.37;;;15.40;54.40;;;;;;5055117;28;20279;-51
2022/03/22 11:16:24;;;;;;;16.97;12.57;;;15.60;54.80;;;;;;5059469;28;20199;-50
2022/03/22 11:18:51;;;;;;;16.57;12.27;;;15.60;53.80;;;;;;5058768;28;20201;-46
2022/03/22 11:21:19;;;;;;;15.60;11.87;;;15.60;53.70;;;;;;5056732;28;20207;-49
2022/03/22 11:23:47;;;;;;;15.00;11.90;;;15.60;54.20;;;;;;5057781;28;20946;-46
2022/03/22 11:26:18;;;;;;;16.63;12.33;;;15.60;54.40;;;;;;5048675;28;20291;-46
2022/03/22 11:28:48;;;;;;;17.20;12.33;;;15.80;53.70;;;;;;5055577;28;20214;-47
2022/03/22 11:31:18;;;;;;;13.77;12.10;;;15.70;53.00;;;;;;5062862;28;20308;-47
2022/03/22 11:36:39;;;;;;;14.17;12.43;;;15.70;52.80;;;;;;5057306;28;20280;-47
2022/03/22 11:39:06;;;;;;;15.40;12.57;;;15.80;52.80;;;;;;5058921;28;20251;-46
2022/03/22 11:44:25;;;;;;;18.77;12.97;;;15.90;53.30;;;;;;5055548;28;20303;-46
2022/03/22 11:47:03;;;;;;;14.10;12.00;;;16.10;52.30;;;;;;5056279;28;20183;-45
2022/03/22 11:49:30;;;;;;;15.33;12.03;;;16.10;52.70;;;;;;5060135;28;20207;-49
2022/03/22 11:51:58;;;;;;;16.83;12.23;;;16.20;53.00;;;;;;5054475;28;20195;-47
2022/03/22 11:54:27;;;;;;;14.77;11.93;;;16.30;52.10;;;;;;5060544;28;20217;-47
2022/03/22 11:56:58;;;;;;;15.33;11.80;;;16.40;52.10;;;;;;5051891;28;20202;-44
2022/03/22 11:59:26;;;;;;;16.23;11.13;;;16.40;52.50;;;;;;5032500;28;20199;-46
2022/03/22 12:02:00;;;;;;;12.70;11.43;;;16.40;52.90;;;;;;5044757;28;20199;-45
2022/03/22 12:04:39;;;;;;;13.67;11.53;;;16.50;51.70;;;;;;5053745;28;20709;-44
2022/03/22 12:07:08;;;;;;;15.20;11.23;;;16.50;51.20;;;;;;5049555;28;20586;-46
2022/03/22 12:09:39;;;;;;;17.37;11.37;;;16.50;50.20;;;;;;5058501;28;20213;-45
2022/03/22 12:12:10;;;;;;;14.37;11.63;;;16.50;50.70;;;;;;5061235;28;20230;-44
2022/03/22 12:14:37;;;;;;;14.93;11.33;;;16.50;50.80;;;;;;5040076;28;20234;-48
2022/03/22 12:17:05;;;;;;;15.07;11.77;;;16.60;51.00;;;;;;5060749;28;20238;-45
2022/03/22 12:19:35;;;;;;;16.00;11.20;;;16.60;51.60;;;;;;5055204;28;20195;-46
2022/03/22 12:22:04;;;;;;;15.13;11.63;;;16.70;51.40;;;;;;5053657;28;20208;-47
2022/03/22 12:24:34;;;;;;;11.40;10.23;;;16.80;51.80;;;;;;5046365;28;20233;-47
2022/03/22 12:27:03;;;;;;;12.27;10.63;;;16.80;51.60;;;;;;5053055;28;20698;-45
2022/03/22 12:29:31;;;;;;;16.10;9.53;;;16.90;51.40;;;;;;5034889;28;20309;-50
2022/03/22 12:32:06;;;;;;;14.40;10.03;;;17.00;50.80;;;;;;5046272;28;20195;-47
2022/03/22 12:34:36;;;;;;;14.87;10.43;;;17.10;49.60;;;;;;5053748;28;20210;-51
2022/03/22 12:37:06;;;;;;;13.33;11.17;;;17.10;49.60;;;;;;5053770;28;20198;-46
2022/03/22 12:39:33;;;;;;;11.70;10.60;;;17.20;49.30;;;;;;5049672;28;20285;-45
2022/03/22 12:41:59;;;;;;;14.07;10.43;;;17.20;50.10;;;;;;5047412;28;20238;-44
2022/03/22 12:44:26;;;;;;;11.30;10.10;;;17.30;49.50;;;;;;5050780;28;20217;-46
2022/03/22 12:46:54;;;;;;;14.80;10.67;;;17.30;48.80;;;;;;5047585;28;20205;-46
2022/03/22 12:49:23;;;;;;;18.60;11.23;;;17.40;48.80;;;;;;5063021;28;20198;-45
2022/03/22 12:51:50;;;;;;;13.73;10.37;;;17.40;48.20;;;;;;5062540;28;20195;-45
2022/03/22 12:54:17;;;;;;;14.63;9.93;;;17.30;49.10;;;;;;5041863;28;20218;-45
2022/03/22 12:56:47;;;;;;;13.67;9.47;;;17.40;49.30;;;;;;5063563;28;20671;-45
2022/03/22 12:59:21;;;;;;;15.53;10.83;;;17.60;49.80;;;;;;5050155;28;20221;-48
2022/03/22 13:01:56;;;;;;;11.90;10.47;;;17.70;50.40;;;;;;5043497;28;20263;-47
2022/03/22 13:04:25;;;;;;;15.83;10.37;;;17.70;49.30;;;;;;5057060;28;20907;-45
2022/03/22 13:07:00;;;;;;;14.03;11.33;;;17.70;48.50;;;;;;5059337;28;20207;-48
2022/03/22 13:12:14;;;;;;;13.37;10.20;;;17.90;48.00;;;;;;5050056;28;20289;-45
2022/03/22 13:17:29;;;;;;;10.87;9.77;;;18.10;47.60;;;;;;5047936;28;20203;-45
2022/03/22 13:19:57;;;;;;;11.70;9.07;;;18.10;47.50;;;;;;5062495;28;20209;-43